Rosendale, Missouri
Current Conditions -  °F | °C
As of 9:53 AM on Friday 24 Oct 2014 (Local Time) from KSTJ Reporting Station
Haze Haze  
Wind Chill: 60°   Ceiling: 500
Heat Index: 60°   Visibility: 4mi
Dew Point: 58°   Wind: 10mph
Humidity: 93%   Direction: 190°S
Pressure: 30.03"   Gusts: NA
Location:  40.04°N, 94.82°W
Report Text: KSTJ 241453Z 19009KT 4SM BR OVC005 16/14 A3003 RMK AO2 SLP167 T01560144 56000
Loading
Personal Weather Stations






























Interactive Weather Map
Tropical Storm Tracking
New forecast layout! Learn more

10-Day Weather Forecast

Advertisements
Track Severe Weather on mobile